Hattiesburg Bobby L Chain Municipal Airport Hattiesburg US
ICAO: KHBG
IATA: HBG
Category: Medium
Scheduled Services: No

Elevation: 151 ft
TransAlt. 18000 ft.

Airport Communications:
ASOS:135.425
HOUSTON CNTR:126.8
CTAF/UNICOM:122.8

KHBG Zoom In..

Runways:

(A) RW 13 length 6094 ft width 150 ft
---- / hdg 132

(B) RW 31 length 6094 ft width 150 ft
---- / hdg 312

Location; KHBG
Day. 23 / Time. 06.53 Zulu
* Altimeter: 29.84
* Temperature: 25° c. 77°f.
* Wind from: 290° Speed 03 kn.
Dewpoint: 22° c.
Visibility: 10 Statute Miles.
Clouds: Clear (automated report).

KHBG 230653Z AUTO 29003KT 10SM CLR 25/22 A2984 RMK AO2 SLP100 T02500217 TSNO


Wind From 290°
Speed 03 kn.

 
 
jpsmedia.com for Web Design worldairports.se 2018   terms of use